Time;durP1;ratioP1;P1;durP2;ratioP2;P2;SDS_P1;SDS_P2;PMS_P1;PMS_P2;Temp;Humidity;BMP_temperature;BMP_pressure;BME280_temperature;BME280_humidity;BME280_pressure;Samples;Min_cycle;Max_cycle;Signal;HPM_P1;HPM_P2
2022/04/13 00:00:03;;;;;;;5.43;3.28;;;;;;;8.31;92.48;100090.19;4810705;29;20042;-73
2022/04/13 00:02:28;;;;;;;4.90;3.00;;;;;;;8.31;92.24;100092.94;4810605;29;20067;-73
2022/04/13 00:04:54;;;;;;;5.75;3.00;;;;;;;8.31;92.24;100104.03;4825523;29;20504;-73
2022/04/13 00:07:19;;;;;;;5.20;3.30;;;;;;;8.25;92.06;100106.81;4810371;29;20038;-74
2022/04/13 00:09:45;;;;;;;4.13;2.80;;;;;;;8.24;92.17;100110.69;4810077;29;20043;-73
2022/04/13 00:12:11;;;;;;;5.38;3.38;;;;;;;8.20;92.16;100108.81;4827116;29;20043;-73
2022/04/13 00:14:36;;;;;;;4.57;2.80;;;;;;;8.17;91.96;100103.84;4801907;29;20504;-73
2022/04/13 00:17:02;;;;;;;4.97;3.00;;;;;;;8.13;92.27;100102.75;4783340;29;20030;-72
2022/04/13 00:19:27;;;;;;;4.20;2.95;;;;;;;8.13;91.98;100108.28;4813855;29;20093;-73
2022/04/13 00:21:53;;;;;;;5.93;3.20;;;;;;;8.09;92.13;100090.63;4813465;29;20042;-73
2022/04/13 00:24:19;;;;;;;6.07;3.65;;;;;;;8.07;92.18;100093.66;4810819;29;20031;-73
2022/04/13 00:26:44;;;;;;;5.78;3.08;;;;;;;8.02;92.32;100093.69;4818038;29;20037;-73
2022/04/13 00:29:10;;;;;;;3.38;2.83;;;;;;;8.02;91.83;100090.94;4798640;29;20495;-73
2022/04/13 00:31:35;;;;;;;4.75;3.00;;;;;;;7.98;92.09;100087.09;4812889;29;20042;-73
2022/04/13 00:34:01;;;;;;;4.20;3.05;;;;;;;7.95;91.88;100091.25;4828246;29;20030;-73
2022/04/13 00:36:26;;;;;;;5.32;2.85;;;;;;;7.94;91.92;100094.31;4829141;29;20574;-73
2022/04/13 00:38:51;;;;;;;4.88;2.85;;;;;;;7.90;91.89;100093.25;4803955;29;20035;-72
2022/04/13 00:41:17;;;;;;;3.63;2.70;;;;;;;7.85;92.24;100091.31;4812095;29;20042;-73
2022/04/13 00:43:43;;;;;;;4.18;3.30;;;;;;;7.84;92.35;100087.75;4810290;29;20081;-73
2022/04/13 00:46:09;;;;;;;6.20;2.80;;;;;;;7.83;92.31;100093.56;4817559;29;20038;-73
2022/04/13 00:48:36;;;;;;;4.47;3.05;;;;;;;7.79;92.69;100101.59;4813332;29;20035;-73
2022/04/13 00:51:01;;;;;;;3.60;2.60;;;;;;;7.78;92.50;100099.13;4813147;29;20476;-74
2022/04/13 00:53:27;;;;;;;5.65;2.83;;;;;;;7.75;92.27;100100.53;4812786;29;20121;-73
2022/04/13 00:55:57;;;;;;;4.03;2.53;;;;;;;7.69;91.96;100098.06;4786968;29;20065;-73
2022/04/13 00:58:24;;;;;;;4.43;2.72;;;;;;;7.65;92.12;100097.81;4797987;29;20030;-73
2022/04/13 01:00:49;;;;;;;4.03;3.08;;;;;;;7.70;92.02;100095.00;4813273;29;20034;-73
2022/04/13 01:03:20;;;;;;;7.28;3.08;;;;;;;7.64;91.92;100098.09;4819675;29;20038;-73
2022/04/13 01:05:46;;;;;;;6.03;2.70;;;;;;;7.61;91.83;100102.25;4799060;29;20034;-73
2022/04/13 01:08:13;;;;;;;4.07;3.00;;;;;;;7.60;92.08;100111.63;4818236;29;20082;-73
2022/04/13 01:10:40;;;;;;;3.35;2.72;;;;;;;7.60;92.18;100108.88;4784416;29;20061;-74
2022/04/13 01:13:06;;;;;;;3.85;2.83;;;;;;;7.55;92.13;100108.91;4796506;29;20081;-73
2022/04/13 01:15:31;;;;;;;4.45;2.75;;;;;;;7.53;91.98;100116.66;4780534;29;20030;-73
2022/04/13 01:17:56;;;;;;;2.97;2.50;;;;;;;7.50;92.02;100117.25;4825500;29;20522;-73
2022/04/13 01:20:23;;;;;;;5.57;2.75;;;;;;;7.46;92.33;100118.91;4801347;29;20041;-74
2022/04/13 01:22:49;;;;;;;6.82;3.17;;;;;;;7.44;92.31;100112.81;4812436;29;20069;-73
2022/04/13 01:25:14;;;;;;;3.30;2.80;;;;;;;7.41;91.91;100114.25;4811907;29;20034;-72
2022/04/13 01:27:40;;;;;;;4.57;2.85;;;;;;;7.41;92.20;100113.38;4800867;29;20038;-73
2022/04/13 01:30:07;;;;;;;4.65;2.85;;;;;;;7.41;92.06;100118.91;4814369;29;20026;-73
2022/04/13 01:32:33;;;;;;;3.70;3.00;;;;;;;7.35;92.16;100113.44;4817990;29;20115;-73
2022/04/13 01:34:58;;;;;;;4.65;2.63;;;;;;;7.31;92.19;100126.16;4812245;29;20057;-73
2022/04/13 01:37:24;;;;;;;4.93;2.83;;;;;;;7.30;92.18;100121.72;4797240;29;20042;-72
2022/04/13 01:39:49;;;;;;;4.07;2.97;;;;;;;7.29;92.51;100131.13;4796819;29;20107;-73
2022/04/13 01:42:15;;;;;;;4.30;2.97;;;;;;;7.27;92.81;100119.53;4827183;29;20034;-74
2022/04/13 01:44:41;;;;;;;4.88;2.90;;;;;;;7.24;92.91;100122.03;4811870;29;20409;-73
2022/04/13 01:47:07;;;;;;;5.80;2.88;;;;;;;7.22;92.70;100130.59;4794353;29;20030;-73
2022/04/13 01:49:33;;;;;;;4.00;2.45;;;;;;;7.20;92.79;100126.47;4776141;29;20049;-73
2022/04/13 01:51:58;;;;;;;5.82;2.70;;;;;;;7.19;92.92;100133.94;4817968;29;20038;-73
2022/04/13 01:54:23;;;;;;;3.33;2.25;;;;;;;7.18;92.95;100129.50;4796582;29;20035;-73
2022/04/13 01:56:49;;;;;;;2.78;2.25;;;;;;;7.15;92.71;100136.41;4794075;29;20031;-73
2022/04/13 01:59:14;;;;;;;4.50;2.50;;;;;;;7.14;92.63;100143.03;4808563;29;20069;-74
2022/04/13 02:01:44;;;;;;;5.50;2.58;;;;;;;7.12;92.43;100138.91;4811892;29;20038;-73
2022/04/13 02:04:35;;;;;;;4.32;2.60;;;;;;;7.09;92.68;100140.28;4811894;29;20035;-73
2022/04/13 02:07:01;;;;;;;4.00;2.50;;;;;;;7.06;93.02;100140.03;4808908;29;20552;-73
2022/04/13 02:09:26;;;;;;;4.18;2.20;;;;;;;7.01;93.48;100140.03;4811405;29;20094;-73
2022/04/13 02:11:52;;;;;;;3.08;1.92;;;;;;;7.01;93.12;100140.03;4827011;29;20042;-73
2022/04/13 02:14:17;;;;;;;3.88;2.22;;;;;;;7.01;92.99;100154.66;4811384;29;20038;-73
2022/04/13 02:16:43;;;;;;;4.20;2.15;;;;;;;7.01;92.76;100153.84;4813428;29;20036;-73
2022/04/13 02:19:11;;;;;;;3.00;2.30;;;;;;;6.94;92.96;100162.44;4800315;29;20038;-73
2022/04/13 02:21:36;;;;;;;3.08;2.10;;;;;;;6.97;92.71;100163.81;4827161;29;20034;-73
2022/04/13 02:24:02;;;;;;;3.78;2.13;;;;;;;6.92;92.90;100159.94;4811244;29;20030;-73
2022/04/13 02:26:28;;;;;;;2.88;2.40;;;;;;;6.92;93.03;100161.88;4808279;29;20031;-73
2022/04/13 02:28:53;;;;;;;2.63;2.15;;;;;;;6.86;93.24;100174.03;4826393;29;20033;-73
2022/04/13 02:31:19;;;;;;;3.45;2.42;;;;;;;6.84;92.99;100174.28;4810995;29;20034;-73
2022/04/13 02:33:45;;;;;;;2.80;2.25;;;;;;;6.86;93.03;100180.38;4796102;29;20041;-73
2022/04/13 02:36:10;;;;;;;2.40;1.98;;;;;;;6.82;93.53;100172.91;4810770;29;20500;-73
2022/04/13 02:38:36;;;;;;;2.80;2.08;;;;;;;6.79;93.55;100181.75;4811006;29;20030;-73
2022/04/13 02:41:02;;;;;;;2.00;1.90;;;;;;;6.77;93.60;100181.19;4802924;29;20495;-73
2022/04/13 02:43:28;;;;;;;2.30;2.10;;;;;;;6.74;93.38;100182.56;4785477;29;20079;-73
2022/04/13 02:45:54;;;;;;;2.60;2.17;;;;;;;6.72;93.15;100182.03;4809071;29;20480;-73
2022/04/13 02:48:20;;;;;;;3.65;2.20;;;;;;;6.73;93.27;100186.44;4811371;29;20033;-73
2022/04/13 02:50:45;;;;;;;3.15;1.95;;;;;;;6.76;93.44;100179.53;4808655;29;20086;-73
2022/04/13 02:53:11;;;;;;;2.40;2.03;;;;;;;6.70;93.47;100187.81;4793021;29;20484;-73
2022/04/13 02:55:36;;;;;;;2.03;1.83;;;;;;;6.69;93.42;100185.34;4816886;29;20034;-73
2022/04/13 02:58:02;;;;;;;2.97;1.88;;;;;;;6.64;94.08;100177.91;4810931;29;20411;-72
2022/04/13 03:00:27;;;;;;;2.75;1.95;;;;;;;6.62;93.57;100174.56;4810795;29;20034;-73
2022/04/13 03:02:53;;;;;;;2.30;2.00;;;;;;;6.69;93.29;100177.06;4799408;29;20045;-73
2022/04/13 03:05:18;;;;;;;2.30;2.10;;;;;;;6.67;93.25;100177.34;4811075;29;20034;-73
2022/04/13 03:07:44;;;;;;;3.10;2.20;;;;;;;6.67;93.35;100180.09;4829487;29;20039;-73
2022/04/13 03:10:09;;;;;;;2.33;1.88;;;;;;;6.63;93.39;100181.78;4827718;29;20042;-73
2022/04/13 03:12:35;;;;;;;2.72;2.20;;;;;;;6.63;93.38;100186.44;4810916;29;20050;-73
2022/04/13 03:15:02;;;;;;;4.75;2.28;;;;;;;6.62;93.70;100179.28;4811008;29;20041;-73
2022/04/13 03:17:28;;;;;;;3.40;2.00;;;;;;;6.58;93.25;100173.47;4810898;29;20060;-73
2022/04/13 03:19:53;;;;;;;2.33;2.13;;;;;;;6.61;92.91;100174.88;4810774;29;20034;-73
2022/04/13 03:22:28;;;;;;;4.43;2.15;;;;;;;6.56;93.05;100172.09;4825939;29;20042;-73
2022/04/13 03:24:53;;;;;;;3.67;2.47;;;;;;;6.55;92.92;100174.03;4810447;29;20484;-73
2022/04/13 03:27:19;;;;;;;3.80;2.50;;;;;;;6.54;92.89;100169.59;4840870;29;20187;-73
2022/04/13 03:29:45;;;;;;;4.68;2.50;;;;;;;6.51;93.42;100170.16;4798886;29;20069;-73
2022/04/13 03:32:11;;;;;;;2.85;2.20;;;;;;;6.48;93.64;100167.94;4809043;29;20580;-73
2022/04/13 03:34:36;;;;;;;4.97;2.33;;;;;;;6.46;93.34;100171.00;4774678;29;20046;-73
2022/04/13 03:37:02;;;;;;;3.08;2.30;;;;;;;6.44;92.79;100167.69;4795669;29;20030;-73
2022/04/13 03:39:28;;;;;;;5.70;2.33;;;;;;;6.43;92.81;100159.66;4825582;29;20109;-73
2022/04/13 03:41:53;;;;;;;3.67;2.60;;;;;;;6.44;92.97;100162.16;4810442;29;20030;-73
2022/04/13 03:44:20;;;;;;;3.63;2.63;;;;;;;6.42;93.07;100156.09;4810470;29;20063;-73
2022/04/13 03:46:45;;;;;;;5.88;2.47;;;;;;;6.41;93.15;100157.22;4795248;29;20026;-72
2022/04/13 03:49:12;;;;;;;3.63;2.55;;;;;;;6.41;93.08;100154.44;4798651;29;20065;-73
2022/04/13 03:51:38;;;;;;;3.90;2.38;;;;;;;6.40;93.19;100149.19;4799151;29;20026;-73
2022/04/13 03:54:03;;;;;;;4.35;2.40;;;;;;;6.37;92.59;100147.81;4813911;29;20035;-73
2022/04/13 03:56:29;;;;;;;2.20;2.00;;;;;;;6.36;92.53;100154.44;4814685;29;20034;-73
2022/04/13 03:58:58;;;;;;;3.47;2.70;;;;;;;6.35;92.40;100161.06;4823029;29;20034;-73
2022/04/13 04:01:23;;;;;;;4.28;2.30;;;;;;;6.34;92.37;100162.16;4802975;29;20110;-73
2022/04/13 04:03:49;;;;;;;3.55;2.83;;;;;;;6.35;92.45;100166.59;4813841;29;20039;-73
2022/04/13 04:06:14;;;;;;;5.63;2.72;;;;;;;6.35;92.19;100157.47;4813844;29;20037;-72
2022/04/13 04:08:40;;;;;;;3.33;2.55;;;;;;;6.33;92.45;100160.50;4828505;29;20034;-73
2022/04/13 04:11:05;;;;;;;3.58;2.80;;;;;;;6.29;92.45;100162.13;4813808;29;20052;-73
2022/04/13 04:13:31;;;;;;;3.50;2.72;;;;;;;6.26;92.53;100168.22;4815638;29;20396;-72
2022/04/13 04:15:57;;;;;;;4.18;2.60;;;;;;;6.26;92.28;100165.44;4828702;29;20507;-73
2022/04/13 04:18:23;;;;;;;4.20;2.63;;;;;;;6.30;92.24;100177.59;4825975;29;20059;-73
2022/04/13 04:20:48;;;;;;;4.45;2.53;;;;;;;6.25;92.48;100172.06;4843914;29;20030;-73
2022/04/13 04:23:13;;;;;;;3.00;2.60;;;;;;;6.25;92.02;100175.66;4831550;29;20034;-73
2022/04/13 04:25:39;;;;;;;5.47;2.78;;;;;;;6.23;92.43;100177.84;4830964;29;20092;-73
2022/04/13 04:28:06;;;;;;;5.75;2.85;;;;;;;6.19;92.69;100185.03;4802132;29;20038;-74
2022/04/13 04:30:31;;;;;;;5.05;2.58;;;;;;;6.16;92.66;100190.28;4795026;29;20481;-74
2022/04/13 04:32:57;;;;;;;4.32;2.85;;;;;;;6.17;92.65;100195.50;4781416;29;20038;-73
2022/04/13 04:35:23;;;;;;;5.70;2.75;;;;;;;6.18;92.25;100207.34;4810594;29;20062;-73
2022/04/13 04:37:48;;;;;;;3.28;2.30;;;;;;;6.14;92.07;100207.06;4798243;29;20076;-72
2022/04/13 04:40:14;;;;;;;4.43;2.50;;;;;;;6.12;92.00;100217.53;4779854;29;20035;-73
2022/04/13 04:42:46;;;;;;;5.68;2.70;;;;;;;6.15;91.92;100218.94;4822223;29;20030;-74
2022/04/13 04:45:13;;;;;;;5.90;2.83;;;;;;;6.09;92.27;100222.78;4825465;29;20075;-73
2022/04/13 04:47:39;;;;;;;3.58;2.60;;;;;;;6.06;92.54;100237.09;4820263;29;20044;-73
2022/04/13 04:50:05;;;;;;;4.47;3.00;;;;;;;6.06;92.29;100242.63;4831843;29;20026;-74
2022/04/13 04:52:31;;;;;;;4.30;2.83;;;;;;;6.03;92.26;100244.81;4798362;29;20042;-73
2022/04/13 04:54:58;;;;;;;3.70;2.63;;;;;;;6.05;92.14;100250.06;4795036;29;20053;-73
2022/04/13 04:57:24;;;;;;;4.07;2.70;;;;;;;6.07;92.20;100252.53;4815401;29;20433;-74
2022/04/13 04:59:49;;;;;;;5.63;2.53;;;;;;;6.02;91.94;100264.38;4812168;29;20037;-73
2022/04/13 05:02:15;;;;;;;4.70;2.75;;;;;;;6.00;91.89;100269.34;4800786;29;20038;-73
2022/04/13 05:04:40;;;;;;;2.58;2.38;;;;;;;5.98;91.94;100268.78;4813202;29;20068;-74
2022/04/13 05:07:07;;;;;;;2.55;2.20;;;;;;;5.94;92.35;100268.50;4802510;29;20038;-73
2022/04/13 05:09:32;;;;;;;3.35;2.40;;;;;;;5.93;92.52;100266.81;4809580;29;20064;-74
2022/04/13 05:11:58;;;;;;;2.92;2.20;;;;;;;5.91;92.51;100263.50;4797571;29;20050;-73
2022/04/13 05:14:25;;;;;;;3.47;2.22;;;;;;;5.90;92.26;100272.84;4816751;29;20042;-73
2022/04/13 05:16:50;;;;;;;3.47;2.60;;;;;;;5.90;91.99;100272.84;4802133;29;20031;-73
2022/04/13 05:19:16;;;;;;;3.65;2.40;;;;;;;5.85;92.11;100278.34;4824434;29;20121;-73
2022/04/13 05:21:42;;;;;;;3.42;2.58;;;;;;;5.83;92.36;100277.78;4765574;29;20035;-73
2022/04/13 05:24:08;;;;;;;4.53;2.80;;;;;;;5.83;92.36;100277.78;4797585;29;20038;-73
2022/04/13 05:26:33;;;;;;;3.03;2.42;;;;;;;5.86;91.80;100282.75;4809365;29;20038;-73
2022/04/13 05:28:59;;;;;;;3.42;2.40;;;;;;;5.79;92.46;100287.66;4777778;29;20031;-73
2022/04/13 05:31:24;;;;;;;2.55;2.35;;;;;;;5.84;92.31;100295.97;4827286;29;20047;-73
2022/04/13 05:33:50;;;;;;;3.85;2.65;;;;;;;5.81;91.98;100307.53;4783958;29;20126;-73
2022/04/13 05:36:15;;;;;;;3.33;2.75;;;;;;;5.76;92.27;100301.97;4809663;29;20034;-73
2022/04/13 05:38:41;;;;;;;3.22;2.20;;;;;;;5.77;92.31;100307.25;4793721;29;20041;-73
2022/04/13 05:41:06;;;;;;;2.88;1.83;;;;;;;5.82;91.98;100315.53;4814769;29;20031;-73
2022/04/13 05:43:34;;;;;;;2.13;1.83;;;;;;;5.81;91.97;100321.31;4809147;29;20066;-72
2022/04/13 05:46:00;;;;;;;3.67;2.13;;;;;;;5.77;92.10;100325.72;4797709;29;20041;-73
2022/04/13 05:48:26;;;;;;;3.58;2.20;;;;;;;5.76;92.47;100326.78;4812401;29;20027;-73
2022/04/13 05:50:51;;;;;;;3.60;2.30;;;;;;;5.76;92.74;100335.88;4812248;29;20034;-73
2022/04/13 05:53:17;;;;;;;3.33;2.00;;;;;;;5.77;92.53;100356.03;4811696;29;20034;-73
2022/04/13 05:55:42;;;;;;;2.67;2.30;;;;;;;5.73;92.65;100352.94;4812062;29;20499;-73
2022/04/13 05:58:08;;;;;;;4.18;2.00;;;;;;;5.74;92.59;100359.28;4796772;29;20047;-73
2022/04/13 06:00:34;;;;;;;2.72;2.42;;;;;;;5.77;92.41;100358.78;4811822;29;20034;-73
2022/04/13 06:03:00;;;;;;;2.20;1.95;;;;;;;5.76;92.27;100362.59;4798022;29;20037;-73
2022/04/13 06:05:25;;;;;;;3.20;2.20;;;;;;;5.75;92.22;100364.53;4815601;29;20030;-73
2022/04/13 06:07:53;;;;;;;2.58;2.10;;;;;;;5.74;92.65;100367.53;4827533;29;20523;-73
2022/04/13 06:10:19;;;;;;;2.20;1.88;;;;;;;5.77;92.81;100367.03;4811759;29;20038;-73
2022/04/13 06:12:47;;;;;;;3.83;2.92;;;;;;;5.77;92.82;100376.13;4811758;29;20041;-77
2022/04/13 06:15:13;;;;;;;4.35;3.67;;;;;;;5.80;93.43;100378.34;4811472;29;20149;-73
2022/04/13 06:17:38;;;;;;;10.63;6.63;;;;;;;5.80;94.29;100383.88;4823559;29;20409;-72
2022/04/13 06:20:09;;;;;;;9.60;5.90;;;;;;;5.85;94.06;100380.31;4824750;29;20039;-74
2022/04/13 06:22:39;;;;;;;9.65;6.32;;;;;;;5.88;94.02;100384.44;4812108;29;20090;-72
2022/04/13 06:25:05;;;;;;;14.95;8.00;;;;;;;5.90;95.45;100387.78;4826445;29;20067;-74
2022/04/13 06:27:30;;;;;;;8.07;5.20;;;;;;;5.96;95.81;100389.50;4826969;29;20047;-74
2022/04/13 06:29:56;;;;;;;9.63;5.30;;;;;;;5.98;95.78;100395.56;4830053;29;20090;-73
2022/04/13 06:32:21;;;;;;;50.08;27.75;;;;;;;6.07;96.46;100402.25;4828347;29;20432;-74
2022/04/13 06:34:47;;;;;;;19.52;12.23;;;;;;;6.15;98.03;100406.44;4826491;29;20042;-70
2022/04/13 06:37:12;;;;;;;15.75;9.68;;;;;;;6.23;99.07;100405.91;4826593;29;20050;-74
2022/04/13 06:39:38;;;;;;;13.80;9.35;;;;;;;6.31;99.79;100410.94;4824289;29;20046;-75
2022/04/13 06:42:03;;;;;;;20.90;13.00;;;;;;;6.44;100.00;100410.44;4811089;29;20035;-76
2022/04/13 06:44:29;;;;;;;15.50;9.18;;;;;;;6.55;100.00;100408.56;4826289;29;20508;-76
2022/04/13 06:46:54;;;;;;;13.02;7.13;;;;;;;6.67;100.00;100420.19;4826523;29;20042;-76
2022/04/13 06:49:20;;;;;;;9.07;7.13;;;;;;;6.79;100.00;100424.66;4826636;29;20030;-76
2022/04/13 06:51:45;;;;;;;9.55;6.18;;;;;;;6.91;100.00;100428.84;4827631;29;20438;-76
2022/04/13 06:54:11;;;;;;;7.80;6.00;;;;;;;7.05;100.00;100425.53;4812974;29;20049;-76
2022/04/13 06:56:39;;;;;;;11.63;7.00;;;;;;;7.19;100.00;100426.69;4827328;29;20039;-76
2022/04/13 06:59:05;;;;;;;12.18;7.05;;;;;;;7.34;100.00;100423.13;4822817;29;20042;-76
2022/04/13 07:01:31;;;;;;;9.23;5.90;;;;;;;7.43;100.00;100418.69;4811262;29;20034;-76
2022/04/13 07:03:56;;;;;;;7.43;5.40;;;;;;;7.57;100.00;100417.03;4810987;29;20034;-76
2022/04/13 07:06:22;;;;;;;7.75;5.55;;;;;;;7.71;100.00;100422.00;4826175;29;20057;-76
2022/04/13 07:08:47;;;;;;;6.50;4.88;;;;;;;7.80;100.00;100426.72;4810469;29;20372;-77
2022/04/13 07:11:13;;;;;;;6.97;5.20;;;;;;;7.90;100.00;100431.41;4824820;29;20041;-76
2022/04/13 07:13:39;;;;;;;6.22;4.90;;;;;;;8.03;100.00;100430.00;4816775;29;20042;-76
2022/04/13 07:16:04;;;;;;;8.93;5.20;;;;;;;8.16;100.00;100432.22;4825827;29;20038;-76
2022/04/13 07:18:30;;;;;;;11.23;5.40;;;;;;;8.26;100.00;100436.88;4826296;29;20031;-76
2022/04/13 07:20:56;;;;;;;6.82;4.78;;;;;;;8.40;100.00;100442.69;4831227;29;20027;-75
2022/04/13 07:23:21;;;;;;;6.57;5.15;;;;;;;8.52;100.00;100447.91;4842237;29;20077;-77
2022/04/13 07:25:59;;;;;;;6.75;4.93;;;;;;;8.66;100.00;100447.03;4825749;29;20034;-77
2022/04/13 07:28:25;;;;;;;5.53;3.70;;;;;;;8.80;100.00;100443.63;4827095;29;20057;-74
2022/04/13 07:30:50;;;;;;;14.13;4.28;;;;;;;8.94;100.00;100442.75;4817418;29;20031;-73
2022/04/13 07:33:16;;;;;;;8.88;4.50;;;;;;;9.10;100.00;100443.47;4822814;29;20030;-73
2022/04/13 07:35:41;;;;;;;10.40;4.72;;;;;;;9.22;100.00;100450.63;4827102;29;20660;-74
2022/04/13 07:38:07;;;;;;;6.53;4.30;;;;;;;9.37;100.00;100442.22;4824557;29;20457;-73
2022/04/13 07:40:32;;;;;;;6.65;4.60;;;;;;;9.54;100.00;100447.34;4825892;29;20045;-74
2022/04/13 07:42:58;;;;;;;6.97;4.90;;;;;;;9.68;100.00;100442.81;4826782;29;20042;-76
2022/04/13 07:45:23;;;;;;;7.25;4.70;;;;;;;9.86;100.00;100441.25;4828987;29;20038;-74
2022/04/13 07:47:49;;;;;;;6.20;5.38;;;;;;;10.00;100.00;100445.03;4829315;29;20042;-75
2022/04/13 07:50:14;;;;;;;8.55;5.47;;;;;;;10.17;100.00;100455.69;4823991;29;20030;-74
2022/04/13 07:52:41;;;;;;;6.95;5.75;;;;;;;10.31;100.00;100449.47;4826845;29;20038;-74
2022/04/13 07:55:09;;;;;;;6.57;5.57;;;;;;;10.49;100.00;100452.31;4810360;29;20150;-74
2022/04/13 07:57:36;;;;;;;11.52;5.53;;;;;;;10.58;100.00;100458.03;4810362;29;20042;-74
2022/04/13 08:00:03;;;;;;;10.77;6.20;;;;;;;10.72;100.00;100452.59;4825862;29;20481;-73
2022/04/13 08:02:28;;;;;;;6.05;5.15;;;;;;;10.88;100.00;100456.03;4825493;29;20034;-75
2022/04/13 08:04:55;;;;;;;7.18;6.15;;;;;;;11.03;100.00;100460.53;4807418;29;20099;-75
2022/04/13 08:07:21;;;;;;;7.40;6.70;;;;;;;11.17;100.00;100461.47;4798071;29;20057;-75
2022/04/13 08:09:47;;;;;;;6.20;5.38;;;;;;;11.24;100.00;100466.66;4811931;29;20027;-75
2022/04/13 08:12:15;;;;;;;7.55;5.80;;;;;;;11.40;100.00;100471.72;4786703;29;20536;-74
2022/04/13 08:14:41;;;;;;;8.57;6.00;;;;;;;11.52;100.00;100473.22;4793337;29;20081;-74
2022/04/13 08:17:06;;;;;;;7.53;6.18;;;;;;;11.68;100.00;100473.81;4779254;29;20058;-74
2022/04/13 08:19:32;;;;;;;12.18;6.80;;;;;;;11.81;100.00;100470.22;4822430;29;20099;-74
2022/04/13 08:21:57;;;;;;;5.63;5.13;;;;;;;11.94;100.00;100472.28;4823936;29;20045;-74
2022/04/13 08:24:23;;;;;;;9.32;7.55;;;;;;;12.13;100.00;100488.94;4810222;29;20041;-74
2022/04/13 08:26:48;;;;;;;8.60;7.50;;;;;;;12.26;100.00;100492.91;4823915;29;20489;-74
2022/04/13 08:29:14;;;;;;;7.50;6.68;;;;;;;12.44;100.00;100493.97;4807225;29;20153;-74
2022/04/13 08:31:39;;;;;;;9.88;7.10;;;;;;;12.59;100.00;100502.03;4819340;29;20039;-74
2022/04/13 08:34:05;;;;;;;10.90;6.97;;;;;;;12.79;100.00;100511.09;4810515;29;20039;-74
2022/04/13 08:36:30;;;;;;;13.27;6.85;;;;;;;12.92;100.00;100511.13;4816975;29;20038;-74
2022/04/13 08:38:56;;;;;;;9.65;6.78;;;;;;;13.09;100.00;100510.53;4829163;29;20397;-74
2022/04/13 08:42:06;;;;;;;7.55;6.75;;;;;;;13.30;100.00;100524.88;4801732;29;20042;-75
2022/04/13 08:44:47;;;;;;;12.10;6.55;;;;;;;13.50;100.00;100520.78;4818627;29;20083;-74
2022/04/13 08:47:13;;;;;;;11.70;6.45;;;;;;;13.68;100.00;100523.75;4811820;29;20077;-74
2022/04/13 08:49:43;;;;;;;8.80;6.38;;;;;;;13.89;100.00;100526.88;4796771;29;20501;-74
2022/04/13 08:52:09;;;;;;;10.48;7.28;;;;;;;14.11;100.00;100534.47;4811995;29;20420;-74
2022/04/13 08:54:59;;;;;;;7.55;5.80;;;;;;;14.35;100.00;100540.56;4786468;29;20042;-75
2022/04/13 08:57:26;;;;;;;8.65;5.90;;;;;;;14.53;98.65;100533.13;4826937;29;20034;-74
2022/04/13 09:00:13;;;;;;;7.85;6.20;;;;;;;14.72;98.36;100538.47;4812920;29;20141;-75
2022/04/13 09:02:47;;;;;;;6.45;5.78;;;;;;;14.92;98.37;100542.69;4830514;29;20405;-74
2022/04/13 09:05:27;;;;;;;9.60;6.38;;;;;;;15.07;98.20;100544.22;4826857;29;20180;-74
2022/04/13 09:08:07;;;;;;;9.40;7.45;;;;;;;15.22;97.32;100552.19;4815506;29;20067;-74
2022/04/13 09:10:32;;;;;;;8.50;6.45;;;;;;;15.48;97.71;100549.44;4811258;29;20155;-75
2022/04/13 09:12:58;;;;;;;8.30;7.03;;;;;;;15.66;98.04;100558.69;4781285;29;20161;-74
2022/04/13 09:15:24;;;;;;;9.52;6.60;;;;;;;15.86;97.05;100549.69;4799554;29;20106;-74
2022/04/13 09:17:49;;;;;;;7.97;6.15;;;;;;;16.10;97.08;100556.75;4819806;29;20079;-75
2022/04/13 09:20:15;;;;;;;9.57;6.93;;;;;;;16.31;95.96;100554.94;4807895;29;20030;-74
2022/04/13 09:22:41;;;;;;;7.68;6.45;;;;;;;16.51;94.80;100549.78;4827646;29;20031;-74
2022/04/13 09:25:07;;;;;;;7.88;5.40;;;;;;;16.66;93.24;100546.47;4813494;29;20087;-75
2022/04/13 09:27:33;;;;;;;9.45;5.20;;;;;;;16.78;91.42;100550.59;4816781;29;20041;-75
2022/04/13 09:29:59;;;;;;;8.48;4.97;;;;;;;16.90;90.26;100551.50;4811164;29;20476;-76
2022/04/13 09:32:24;;;;;;;5.75;4.60;;;;;;;17.12;90.54;100553.25;4799117;29;20042;-76
2022/04/13 09:34:51;;;;;;;7.45;4.50;;;;;;;17.26;89.02;100557.81;4827510;29;20034;-75
2022/04/13 09:37:16;;;;;;;9.55;3.78;;;;;;;17.37;85.05;100559.88;4828656;29;20041;-76
2022/04/13 09:39:42;;;;;;;9.10;4.57;;;;;;;17.50;86.62;100552.38;4811949;29;20404;-76
2022/04/13 09:42:07;;;;;;;7.25;4.88;;;;;;;17.57;86.46;100566.69;4811942;29;20026;-76
2022/04/13 09:44:33;;;;;;;9.80;5.10;;;;;;;17.69;87.30;100565.13;4826202;29;20058;-76
2022/04/13 09:47:12;;;;;;;9.52;4.43;;;;;;;17.79;84.72;100571.22;4811901;29;20030;-76
2022/04/13 09:49:50;;;;;;;8.07;4.28;;;;;;;17.93;85.31;100570.94;4828767;29;20030;-76
2022/04/13 09:52:16;;;;;;;8.20;4.00;;;;;;;18.00;82.84;100579.66;4831706;29;20034;-76
2022/04/13 09:54:44;;;;;;;8.88;3.38;;;;;;;18.16;82.04;100581.84;4827466;29;20046;-76
2022/04/13 09:57:20;;;;;;;7.45;3.58;;;;;;;18.27;81.11;100583.06;4827259;29;20034;-76
2022/04/13 09:59:58;;;;;;;5.60;2.75;;;;;;;18.40;79.09;100578.31;4809164;29;20066;-76
2022/04/13 10:02:39;;;;;;;9.82;3.42;;;;;;;18.50;78.80;100587.16;4808803;29;20094;-76
2022/04/13 10:05:20;;;;;;;8.98;3.50;;;;;;;18.65;78.93;100587.66;4812294;29;20042;-76
2022/04/13 10:07:59;;;;;;;8.45;2.42;;;;;;;18.74;75.23;100582.78;4801328;29;20034;-76
2022/04/13 10:10:25;;;;;;;7.72;2.22;;;;;;;18.86;74.53;100588.47;4823758;29;20041;-76
2022/04/13 10:12:51;;;;;;;6.78;1.90;;;;;;;18.95;74.35;100592.00;4826801;29;20042;-76
2022/04/13 10:15:16;;;;;;;7.22;2.38;;;;;;;19.12;74.77;100587.34;4828915;29;20046;-76
2022/04/13 10:17:42;;;;;;;4.25;1.92;;;;;;;19.24;74.42;100590.16;4818562;29;20034;-77
2022/04/13 10:20:08;;;;;;;5.40;1.67;;;;;;;19.38;73.32;100590.63;4842125;29;20528;-74
2022/04/13 10:22:34;;;;;;;4.55;1.67;;;;;;;19.53;70.90;100596.72;4828076;29;20030;-73
2022/04/13 10:25:20;;;;;;;4.75;1.40;;;;;;;19.70;72.57;100588.06;4826477;29;20095;-73
2022/04/13 10:28:13;;;;;;;5.15;1.55;;;;;;;19.79;67.51;100591.56;4817549;29;20034;-73
2022/04/13 10:30:40;;;;;;;3.03;1.30;;;;;;;19.93;67.09;100590.38;4809617;29;20056;-75
2022/04/13 10:33:07;;;;;;;3.90;1.63;;;;;;;20.04;66.44;100591.53;4821954;29;20274;-74
2022/04/13 10:35:35;;;;;;;4.75;1.83;;;;;;;20.17;66.61;100589.47;4827854;29;20034;-74
2022/04/13 10:38:00;;;;;;;6.60;1.90;;;;;;;20.25;63.94;100589.34;4827440;29;20030;-73
2022/04/13 10:40:28;;;;;;;5.20;1.65;;;;;;;20.35;63.29;100590.84;4830004;29;20042;-73
2022/04/13 10:42:54;;;;;;;4.70;1.40;;;;;;;20.54;65.27;100587.38;4829411;29;20034;-74
2022/04/13 10:45:20;;;;;;;3.72;1.00;;;;;;;20.73;64.28;100586.72;4825640;29;20034;-75
2022/04/13 10:48:05;;;;;;;3.88;1.42;;;;;;;20.85;63.31;100591.47;4827769;29;20090;-75
2022/04/13 10:50:46;;;;;;;3.97;1.52;;;;;;;20.87;62.42;100589.91;4827788;29;20544;-75
2022/04/13 10:53:20;;;;;;;2.17;1.10;;;;;;;20.89;60.80;100589.53;4826244;29;20039;-74
2022/04/13 10:56:00;;;;;;;3.90;1.02;;;;;;;20.83;57.73;100593.81;4827511;29;20073;-76
2022/04/13 10:59:00;;;;;;;3.85;0.80;;;;;;;20.66;54.34;100590.13;4825672;29;20038;-74
2022/04/13 11:01:44;;;;;;;2.95;0.75;;;;;;;20.56;53.78;100592.66;4807968;29;20042;-74
2022/04/13 11:04:09;;;;;;;4.43;0.82;;;;;;;20.38;55.26;100595.75;4822258;29;20034;-78
2022/04/13 11:06:35;;;;;;;2.38;0.70;;;;;;;20.23;55.31;100599.34;4812301;29;20035;-78
2022/04/13 11:09:02;;;;;;;2.70;0.63;;;;;;;20.18;55.76;100603.22;4800388;29;20060;-78
2022/04/13 11:11:28;;;;;;;2.55;0.60;;;;;;;20.18;56.88;100597.59;4827565;29;20159;-78
2022/04/13 11:13:54;;;;;;;4.53;0.82;;;;;;;20.13;57.18;100597.84;4810786;29;20058;-78
2022/04/13 11:16:20;;;;;;;4.50;0.80;;;;;;;20.17;58.30;100601.59;4819095;29;20659;-75
2022/04/13 11:19:02;;;;;;;3.65;0.90;;;;;;;20.26;58.28;100595.81;4822285;29;20035;-76
2022/04/13 11:21:31;;;;;;;2.80;0.57;;;;;;;20.32;58.23;100594.38;4841247;29;20575;-76
2022/04/13 11:23:56;;;;;;;2.30;0.60;;;;;;;20.38;56.44;100594.94;4825712;29;20038;-75
2022/04/13 11:26:26;;;;;;;6.78;0.90;;;;;;;20.50;56.94;100597.69;4827140;29;20046;-75
2022/04/13 11:29:10;;;;;;;3.60;0.65;;;;;;;20.63;57.15;100604.97;4827101;29;20042;-74